Time;durP1;ratioP1;P1;durP2;ratioP2;P2;SDS_P1;SDS_P2;PMS_P1;PMS_P2;Temp;Humidity;BMP_temperature;BMP_pressure;BME280_temperature;BME280_humidity;BME280_pressure;Samples;Min_cycle;Max_cycle;Signal;HPM_P1;HPM_P2
2023/11/07 00:02:26;;;;;;;0.80;0.70;;;;;;;6.09;100.00;97800.72;5078574;28;20251;-78
2023/11/07 00:04:52;;;;;;;0.83;0.70;;;;;;;6.02;100.00;97809.00;5078504;28;20212;-78
2023/11/07 00:07:19;;;;;;;1.00;0.90;;;;;;;6.03;100.00;97806.31;5078585;28;20219;-78
2023/11/07 00:09:47;;;;;;;2.20;1.00;;;;;;;5.99;100.00;97812.63;5078577;28;20231;-78
2023/11/07 00:12:13;;;;;;;0.77;0.77;;;;;;;5.96;100.00;97810.19;5078277;28;20280;-78
2023/11/07 00:14:40;;;;;;;1.20;0.83;;;;;;;5.93;100.00;97805.13;5077936;28;20308;-78
2023/11/07 00:17:06;;;;;;;2.20;1.10;;;;;;;5.95;100.00;97808.53;5078300;28;20192;-78
2023/11/07 00:19:33;;;;;;;1.20;1.10;;;;;;;5.95;100.00;97808.53;5077813;28;20208;-78
2023/11/07 00:22:00;;;;;;;1.70;0.80;;;;;;;5.93;100.00;97810.34;5078349;28;20234;-78
2023/11/07 00:24:26;;;;;;;2.17;1.10;;;;;;;5.99;100.00;97810.03;5078603;28;20203;-78
2023/11/07 00:26:55;;;;;;;2.80;1.00;;;;;;;6.03;100.00;97810.69;5078346;28;20189;-78
2023/11/07 00:29:23;;;;;;;1.13;1.00;;;;;;;6.00;100.00;97806.50;5078396;28;20215;-78
2023/11/07 00:31:51;;;;;;;1.03;0.93;;;;;;;5.94;100.00;97809.44;5078427;28;20245;-78
2023/11/07 00:34:17;;;;;;;1.50;0.70;;;;;;;5.82;100.00;97814.53;5077150;28;20238;-78
2023/11/07 00:36:46;;;;;;;1.83;0.70;;;;;;;5.70;100.00;97813.41;5077313;28;20199;-78
2023/11/07 00:39:13;;;;;;;1.87;0.80;;;;;;;5.68;100.00;97820.47;5077924;28;20192;-78
2023/11/07 00:41:39;;;;;;;0.97;0.87;;;;;;;5.65;100.00;97820.66;5078028;28;20214;-78
2023/11/07 00:44:07;;;;;;;0.80;0.80;;;;;;;5.65;100.00;97818.03;5077829;28;21067;-78
2023/11/07 00:46:34;;;;;;;1.53;0.70;;;;;;;5.69;100.00;97814.31;5077971;28;20215;-78
2023/11/07 00:49:00;;;;;;;0.83;0.83;;;;;;;5.75;100.00;97821.00;5077408;28;20192;-78
2023/11/07 00:51:27;;;;;;;1.70;0.80;;;;;;;5.76;100.00;97818.31;5076651;28;20231;-78
2023/11/07 00:53:54;;;;;;;1.03;0.83;;;;;;;5.73;100.00;97813.22;5077049;28;20223;-77
2023/11/07 00:56:21;;;;;;;1.47;0.90;;;;;;;5.63;100.00;97819.88;5077251;28;20208;-78
2023/11/07 00:58:47;;;;;;;1.00;0.90;;;;;;;5.57;100.00;97822.84;5077808;28;20192;-78
2023/11/07 01:01:16;;;;;;;1.97;1.10;;;;;;;5.59;100.00;97826.25;5077267;28;20258;-78
2023/11/07 01:03:43;;;;;;;0.90;0.90;;;;;;;5.59;100.00;97826.25;5077322;28;20200;-78
2023/11/07 01:06:09;;;;;;;1.47;0.70;;;;;;;5.57;100.00;97828.06;5077626;28;20194;-78
2023/11/07 01:08:36;;;;;;;1.27;1.00;;;;;;;5.56;100.00;97820.31;5077553;28;20208;-78
2023/11/07 01:11:03;;;;;;;0.80;0.80;;;;;;;5.48;100.00;97825.97;5077155;28;20234;-78
2023/11/07 01:13:30;;;;;;;1.00;0.90;;;;;;;5.44;100.00;97816.56;5077513;28;20200;-78
2023/11/07 01:15:56;;;;;;;1.27;0.70;;;;;;;5.42;100.00;97818.44;5075647;28;20207;-77
2023/11/07 01:18:24;;;;;;;1.53;0.90;;;;;;;5.38;100.00;97819.50;5077068;28;20207;-78
2023/11/07 01:20:51;;;;;;;0.70;0.70;;;;;;;5.36;100.00;97826.63;5076990;28;20203;-77
2023/11/07 01:23:17;;;;;;;1.53;0.73;;;;;;;5.33;100.00;97832.03;5077241;28;20191;-78
2023/11/07 01:25:43;;;;;;;1.10;0.93;;;;;;;5.35;100.00;97822.31;5076936;28;20203;-77
2023/11/07 01:28:11;;;;;;;1.43;1.00;;;;;;;5.39;100.00;97818.63;5077486;28;20192;-78
2023/11/07 01:30:38;;;;;;;1.37;0.80;;;;;;;5.51;100.00;97819.72;5077042;28;20216;-78
2023/11/07 01:33:04;;;;;;;1.53;0.93;;;;;;;5.62;100.00;97812.94;5077157;28;20252;-77
2023/11/07 01:35:32;;;;;;;1.50;1.00;;;;;;;5.67;100.00;97820.59;5077386;28;20201;-78
2023/11/07 01:37:58;;;;;;;0.83;0.83;;;;;;;5.63;100.00;97817.25;5077322;28;20259;-77
2023/11/07 01:40:25;;;;;;;0.80;0.80;;;;;;;5.59;100.00;97815.75;5077167;28;20215;-78
2023/11/07 01:42:51;;;;;;;1.03;0.80;;;;;;;5.54;100.00;97823.00;5077026;28;20296;-78
2023/11/07 01:45:18;;;;;;;1.00;0.90;;;;;;;5.48;100.00;97815.47;5076397;28;20184;-78
2023/11/07 01:47:45;;;;;;;1.17;1.00;;;;;;;5.48;100.00;97823.34;5076513;28;20285;-78
2023/11/07 01:50:14;;;;;;;1.30;0.90;;;;;;;5.43;100.00;97816.69;5076951;28;20238;-78
2023/11/07 01:52:43;;;;;;;3.27;0.90;;;;;;;5.44;100.00;97827.06;5076831;28;20213;-78
2023/11/07 01:55:13;;;;;;;2.00;0.97;;;;;;;5.42;100.00;97823.69;5077043;28;20196;-78
2023/11/07 01:57:42;;;;;;;1.57;0.87;;;;;;;5.42;100.00;97818.44;5076568;28;20252;-78
2023/11/07 02:00:12;;;;;;;2.87;0.97;;;;;;;5.40;100.00;97819.44;5076772;28;20220;-78
2023/11/07 02:02:39;;;;;;;1.30;1.03;;;;;;;5.33;100.00;97823.31;5076706;28;20208;-78
2023/11/07 02:05:05;;;;;;;1.27;1.03;;;;;;;5.28;100.00;97826.19;5073948;28;20204;-78
2023/11/07 02:07:32;;;;;;;1.53;0.97;;;;;;;5.24;100.00;97829.91;5053163;28;20330;-77
2023/11/07 02:10:00;;;;;;;1.43;1.10;;;;;;;5.24;100.00;97824.66;5052262;28;20212;-78
2023/11/07 02:12:27;;;;;;;0.90;0.90;;;;;;;5.28;100.00;97826.19;5052774;28;20263;-78
2023/11/07 02:14:53;;;;;;;1.13;1.00;;;;;;;5.30;100.00;97834.81;5053729;28;20226;-78
2023/11/07 02:17:20;;;;;;;1.10;0.97;;;;;;;5.36;100.00;97831.88;5056551;28;20208;-78
2023/11/07 02:19:46;;;;;;;1.30;1.20;;;;;;;5.37;100.00;97828.31;5052187;28;20208;-77
2023/11/07 02:22:15;;;;;;;2.13;1.00;;;;;;;5.39;100.00;97834.34;5051871;28;20706;-77
2023/11/07 02:24:43;;;;;;;1.63;0.97;;;;;;;5.36;100.00;97834.47;5053592;28;20216;-78
2023/11/07 02:27:10;;;;;;;2.90;1.40;;;;;;;5.29;100.00;97827.88;5052324;28;20227;-78
2023/11/07 02:29:37;;;;;;;1.00;0.97;;;;;;;5.21;100.00;97832.69;5051938;28;20212;-78
2023/11/07 02:32:05;;;;;;;1.70;1.10;;;;;;;5.12;100.00;97825.28;5051418;28;20312;-78
2023/11/07 02:34:31;;;;;;;2.13;1.17;;;;;;;5.09;100.00;97829.84;5051042;28;20219;-78
2023/11/07 02:36:58;;;;;;;1.10;1.00;;;;;;;5.02;100.00;97842.41;5051389;28;20208;-77
2023/11/07 02:39:24;;;;;;;1.10;1.00;;;;;;;4.99;100.00;97829.50;5051400;28;20211;-78
2023/11/07 02:41:52;;;;;;;0.97;0.97;;;;;;;4.98;100.00;97822.56;5051568;28;20228;-78
2023/11/07 02:44:18;;;;;;;1.10;1.00;;;;;;;4.91;100.00;97820.34;5051691;28;20584;-78
2023/11/07 02:46:46;;;;;;;1.40;1.10;;;;;;;4.82;100.00;97821.66;5053112;28;20208;-78
2023/11/07 02:49:13;;;;;;;1.43;0.83;;;;;;;4.80;100.00;97820.03;5053994;28;20596;-78
2023/11/07 02:51:40;;;;;;;0.63;0.63;;;;;;;4.71;100.00;97829.19;5052099;28;20244;-78
2023/11/07 02:54:07;;;;;;;0.70;0.70;;;;;;;4.68;100.00;97829.38;5051472;28;20220;-78
2023/11/07 02:56:33;;;;;;;2.37;1.07;;;;;;;4.70;100.00;97835.34;5052137;28;20215;-78
2023/11/07 02:59:01;;;;;;;1.23;1.00;;;;;;;4.75;100.00;97835.97;5054804;28;20212;-78
2023/11/07 03:01:28;;;;;;;1.10;1.00;;;;;;;4.75;100.00;97841.22;5055147;28;20599;-78
2023/11/07 03:03:56;;;;;;;1.33;1.17;;;;;;;4.86;100.00;97843.28;5055067;28;20409;-78
2023/11/07 03:06:22;;;;;;;1.27;1.17;;;;;;;4.91;100.00;97831.66;5055199;28;20315;-78
2023/11/07 03:08:49;;;;;;;2.30;1.13;;;;;;;4.91;100.00;97826.44;5055503;28;20242;-78
2023/11/07 03:11:15;;;;;;;1.80;1.33;;;;;;;4.93;100.00;97821.94;5056392;28;20231;-78
2023/11/07 03:13:42;;;;;;;3.53;1.13;;;;;;;5.01;100.00;97814.53;5054952;28;20212;-77
2023/11/07 03:16:10;;;;;;;1.77;0.70;;;;;;;5.06;100.00;97819.56;5054894;28;20226;-78
2023/11/07 03:18:36;;;;;;;2.07;1.10;;;;;;;5.10;100.00;97816.69;5060391;28;20196;-78
2023/11/07 03:21:07;;;;;;;1.37;1.03;;;;;;;5.13;100.00;97811.28;5057236;28;20304;-77
2023/11/07 03:23:34;;;;;;;1.10;0.90;;;;;;;5.12;100.00;97814.81;5055238;28;20208;-77
2023/11/07 03:26:01;;;;;;;2.53;1.00;;;;;;;5.11;100.00;97818.38;5054652;28;20639;-77
2023/11/07 03:28:28;;;;;;;0.80;0.80;;;;;;;5.13;100.00;97811.28;5054822;28;20216;-77
2023/11/07 03:30:54;;;;;;;1.67;1.00;;;;;;;5.19;100.00;97810.94;5054669;28;20247;-77
2023/11/07 03:33:22;;;;;;;1.37;1.10;;;;;;;5.22;100.00;97807.31;5058511;28;20227;-77
2023/11/07 03:35:49;;;;;;;1.57;0.90;;;;;;;5.24;100.00;97811.56;5058913;28;20219;-77
2023/11/07 03:38:15;;;;;;;0.77;0.70;;;;;;;5.29;100.00;97809.53;5054872;28;20212;-77
2023/11/07 03:40:42;;;;;;;2.23;1.10;;;;;;;5.28;100.00;97810.47;5058957;28;20204;-78
2023/11/07 03:43:09;;;;;;;1.50;0.80;;;;;;;5.30;100.00;97813.84;5065472;28;20223;-78
2023/11/07 03:45:34;;;;;;;0.73;0.70;;;;;;;5.26;100.00;97820.16;5071757;28;20209;-77
2023/11/07 03:48:01;;;;;;;2.73;0.80;;;;;;;5.33;100.00;97818.09;5063409;28;20646;-78
2023/11/07 03:50:30;;;;;;;1.80;1.17;;;;;;;5.50;100.00;97816.25;5061161;28;20757;-78
2023/11/07 03:52:56;;;;;;;1.63;0.90;;;;;;;5.72;100.00;97819.41;5061471;28;20234;-78
2023/11/07 03:55:23;;;;;;;0.73;0.73;;;;;;;5.69;100.00;97827.41;5066202;28;20226;-77
2023/11/07 03:57:49;;;;;;;0.87;0.70;;;;;;;5.59;100.00;97826.25;5068300;28;20208;-77
2023/11/07 04:00:19;;;;;;;1.00;0.90;;;;;;;5.52;100.00;97830.13;5065915;28;20209;-77
2023/11/07 04:02:45;;;;;;;0.70;0.63;;;;;;;5.49;100.00;97825.03;5064509;28;20228;-77
2023/11/07 04:05:12;;;;;;;2.20;0.80;;;;;;;5.41;100.00;97824.59;5055955;28;20227;-77
2023/11/07 04:07:40;;;;;;;1.43;0.97;;;;;;;5.30;100.00;97829.56;5054458;28;20212;-77
2023/11/07 04:10:08;;;;;;;0.93;0.63;;;;;;;5.29;100.00;97827.88;5053957;28;20208;-77
2023/11/07 04:12:34;;;;;;;0.80;0.73;;;;;;;5.25;100.00;97826.34;5054036;28;20236;-77
2023/11/07 04:15:02;;;;;;;0.70;0.70;;;;;;;5.26;100.00;97828.03;5054018;28;20307;-77
2023/11/07 04:17:28;;;;;;;1.33;1.17;;;;;;;5.22;100.00;97834.38;5054282;28;20212;-77
2023/11/07 04:19:55;;;;;;;1.00;0.90;;;;;;;5.14;100.00;97852.25;5054463;28;20223;-77
2023/11/07 04:22:22;;;;;;;1.47;0.90;;;;;;;5.13;100.00;97840.09;5054179;28;20220;-77
2023/11/07 04:24:50;;;;;;;0.80;0.80;;;;;;;5.19;100.00;97841.56;5054091;28;20216;-77
2023/11/07 04:27:16;;;;;;;1.10;0.70;;;;;;;5.14;100.00;97841.78;5053733;28;20232;-77
2023/11/07 04:29:43;;;;;;;3.33;0.90;;;;;;;5.20;100.00;97849.31;5053542;28;20642;-77
2023/11/07 04:32:11;;;;;;;1.10;0.73;;;;;;;5.21;100.00;97845.78;5053814;28;20235;-77
2023/11/07 04:34:38;;;;;;;1.30;1.00;;;;;;;5.30;100.00;97844.44;5053202;28;20707;-78
2023/11/07 04:37:04;;;;;;;1.37;1.27;;;;;;;5.35;100.00;97838.03;5053773;28;20264;-78
2023/11/07 04:39:31;;;;;;;3.90;0.90;;;;;;;5.42;100.00;97846.41;5053711;28;20216;-78
2023/11/07 04:41:59;;;;;;;1.83;0.90;;;;;;;5.51;100.00;97840.69;5053538;28;20230;-78
2023/11/07 04:44:25;;;;;;;1.47;1.00;;;;;;;5.55;100.00;97835.19;5053268;28;20212;-78
2023/11/07 04:46:52;;;;;;;0.97;0.90;;;;;;;5.56;100.00;97831.63;5054258;28;20262;-78
2023/11/07 04:49:19;;;;;;;1.73;0.93;;;;;;;5.60;100.00;97833.16;5053369;28;20265;-78
2023/11/07 04:51:45;;;;;;;1.10;0.80;;;;;;;5.54;100.00;97832.66;5053273;28;20235;-78
2023/11/07 04:54:12;;;;;;;1.07;0.83;;;;;;;5.46;100.00;97824.34;5052995;28;20213;-77
2023/11/07 04:56:38;;;;;;;1.23;0.83;;;;;;;5.41;100.00;97826.38;5053409;28;20204;-78
2023/11/07 04:59:06;;;;;;;2.10;1.10;;;;;;;5.32;100.00;97822.47;5053495;28;20208;-77
2023/11/07 05:01:33;;;;;;;0.80;0.80;;;;;;;5.25;100.00;97821.09;5053825;28;20227;-78
2023/11/07 05:03:59;;;;;;;2.20;0.90;;;;;;;5.22;100.00;97823.91;5053157;28;20702;-77
2023/11/07 05:06:27;;;;;;;1.73;0.83;;;;;;;5.19;100.00;97824.03;5053242;28;20701;-78
2023/11/07 05:08:54;;;;;;;0.70;0.70;;;;;;;5.17;100.00;97822.44;5053242;28;20691;-77
2023/11/07 05:11:20;;;;;;;0.80;0.80;;;;;;;5.03;100.00;97825.78;5052873;28;20244;-77
2023/11/07 05:13:48;;;;;;;1.90;0.90;;;;;;;4.91;100.00;97830.81;5052761;28;20219;-78
2023/11/07 05:16:16;;;;;;;0.70;0.70;;;;;;;4.86;100.00;97838.91;5053394;28;20232;-77
2023/11/07 05:18:43;;;;;;;1.13;0.87;;;;;;;4.82;100.00;97842.59;5052913;28;20228;-77
2023/11/07 05:21:09;;;;;;;0.90;0.90;;;;;;;4.74;100.00;97836.06;5052549;28;20228;-77
2023/11/07 05:23:36;;;;;;;1.70;1.13;;;;;;;4.69;100.00;97836.28;5052508;28;20439;-77
2023/11/07 05:26:03;;;;;;;1.53;1.00;;;;;;;4.59;100.00;97840.28;5052978;28;20211;-78
2023/11/07 05:28:29;;;;;;;1.63;1.40;;;;;;;4.48;100.00;97845.22;5053208;28;20212;-77
2023/11/07 05:30:56;;;;;;;3.37;1.97;;;;;;;4.49;100.00;97839.06;5053319;28;20228;-78
2023/11/07 05:33:24;;;;;;;2.67;1.90;;;;;;;4.48;100.00;97847.00;5054612;28;20663;-78
2023/11/07 05:35:50;;;;;;;2.90;1.83;;;;;;;4.52;100.00;97849.38;5054905;28;20233;-78
2023/11/07 05:38:17;;;;;;;4.73;1.93;;;;;;;4.51;100.00;97846.81;5055078;28;20225;-78
2023/11/07 05:40:43;;;;;;;4.43;2.03;;;;;;;4.58;100.00;97848.22;5055396;28;20224;-78
2023/11/07 05:43:10;;;;;;;4.83;2.30;;;;;;;4.58;100.00;97851.69;5055864;28;20208;-78
2023/11/07 05:45:36;;;;;;;3.67;2.40;;;;;;;4.62;100.00;97850.63;5056123;28;20318;-78
2023/11/07 05:48:03;;;;;;;3.97;2.60;;;;;;;4.70;100.00;97847.63;5055752;28;20215;-78
2023/11/07 05:50:31;;;;;;;3.07;2.20;;;;;;;4.78;100.00;97851.53;5052669;28;20574;-78
2023/11/07 05:52:57;;;;;;;6.33;2.53;;;;;;;4.87;100.00;97847.59;5052315;28;20235;-78
2023/11/07 05:55:24;;;;;;;3.97;2.70;;;;;;;4.91;100.00;97836.03;5053212;28;20556;-77
2023/11/07 05:57:52;;;;;;;2.50;2.20;;;;;;;4.89;100.00;97843.97;5052814;28;20291;-77
2023/11/07 06:00:19;;;;;;;2.80;2.10;;;;;;;4.77;100.00;97852.44;5052657;28;20295;-78
2023/11/07 06:02:46;;;;;;;3.17;2.30;;;;;;;4.72;100.00;97846.63;5052366;28;20239;-78
2023/11/07 06:05:13;;;;;;;5.30;2.20;;;;;;;4.73;100.00;97850.94;5052574;28;20206;-77
2023/11/07 06:07:40;;;;;;;3.87;2.50;;;;;;;4.71;100.00;97851.94;5052649;28;20208;-77
2023/11/07 06:10:08;;;;;;;3.43;2.57;;;;;;;4.74;100.00;97851.75;5052915;28;20209;-78
2023/11/07 06:12:34;;;;;;;5.13;2.37;;;;;;;4.77;100.00;97857.69;5051991;28;20711;-78
2023/11/07 06:15:01;;;;;;;5.27;2.20;;;;;;;4.80;100.00;97857.53;5052348;28;20248;-78
2023/11/07 06:17:27;;;;;;;4.13;2.20;;;;;;;4.87;100.00;97866.78;5052925;28;20290;-77
2023/11/07 06:19:54;;;;;;;3.03;2.03;;;;;;;4.90;100.00;97871.84;5052775;28;20208;-78
2023/11/07 06:22:21;;;;;;;5.47;2.63;;;;;;;5.00;100.00;97862.59;5052540;28;20729;-78
2023/11/07 06:24:49;;;;;;;3.63;2.23;;;;;;;5.12;100.00;97872.44;5052237;28;20208;-77
2023/11/07 06:27:15;;;;;;;3.23;2.37;;;;;;;5.22;100.00;97873.69;5052019;28;20211;-77
2023/11/07 06:29:43;;;;;;;3.13;1.97;;;;;;;5.30;100.00;97866.25;5052156;28;20204;-78
2023/11/07 06:32:10;;;;;;;4.47;2.37;;;;;;;5.36;100.00;97865.06;5054059;28;20602;-78
2023/11/07 06:34:37;;;;;;;2.60;2.20;;;;;;;5.46;100.00;97868.91;5056382;28;20546;-78
2023/11/07 06:37:04;;;;;;;3.93;2.30;;;;;;;5.53;100.00;97863.25;5057026;28;20215;-78
2023/11/07 06:39:30;;;;;;;3.03;2.30;;;;;;;5.59;100.00;97862.94;5056727;28;20690;-78
2023/11/07 06:41:58;;;;;;;3.37;2.47;;;;;;;5.66;100.00;97859.06;5055982;28;20230;-77
2023/11/07 06:44:25;;;;;;;3.57;2.30;;;;;;;5.64;100.00;97865.31;5056366;28;20227;-78
2023/11/07 06:46:51;;;;;;;3.93;2.30;;;;;;;5.71;100.00;97864.03;5056295;28;20212;-78
2023/11/07 06:49:18;;;;;;;2.93;2.07;;;;;;;5.74;100.00;97864.72;5056051;28;20215;-78
2023/11/07 06:51:45;;;;;;;4.00;2.60;;;;;;;5.82;100.00;97870.44;5055556;28;20236;-78
2023/11/07 06:54:11;;;;;;;4.27;2.80;;;;;;;5.86;100.00;97861.47;5056044;28;20219;-78
2023/11/07 06:56:38;;;;;;;4.30;2.80;;;;;;;5.92;100.00;97865.53;5055875;28;20209;-78
2023/11/07 06:59:06;;;;;;;4.23;2.47;;;;;;;5.95;100.00;97868.84;5056105;28;20713;-78
2023/11/07 07:01:32;;;;;;;4.60;2.77;;;;;;;6.01;100.00;97865.88;5056119;28;20244;-78
2023/11/07 07:03:59;;;;;;;3.77;2.40;;;;;;;6.03;100.00;97869.25;5055758;28;20215;-78
2023/11/07 07:06:26;;;;;;;5.13;2.70;;;;;;;6.03;100.00;97874.50;5055960;28;20228;-78
2023/11/07 07:08:53;;;;;;;5.00;2.93;;;;;;;6.06;100.00;97869.09;5057245;28;20204;-78
2023/11/07 07:11:20;;;;;;;3.47;2.40;;;;;;;6.11;100.00;97867.03;5057736;28;20580;-77
2023/11/07 07:13:47;;;;;;;4.47;2.57;;;;;;;6.10;100.00;97867.97;5057130;28;20231;-78
2023/11/07 07:16:16;;;;;;;4.43;2.50;;;;;;;6.11;100.00;97872.28;5056682;28;20216;-78
2023/11/07 07:18:44;;;;;;;3.60;2.17;;;;;;;6.10;100.00;97875.03;5057032;28;20292;-78
2023/11/07 07:21:12;;;;;;;3.50;2.10;;;;;;;6.11;100.00;97885.41;5055168;28;20263;-78
2023/11/07 07:23:46;;;;;;;3.63;2.23;;;;;;;6.21;100.00;97883.13;5054855;28;20209;-78
2023/11/07 07:26:14;;;;;;;4.60;1.93;;;;;;;6.28;100.00;97885.31;5055240;28;20693;-78
2023/11/07 07:28:40;;;;;;;2.30;2.10;;;;;;;6.33;100.00;97880.66;5055575;28;20299;-78
2023/11/07 07:31:07;;;;;;;3.73;2.00;;;;;;;6.38;100.00;97886.50;5057551;28;20600;-78
2023/11/07 07:33:36;;;;;;;2.13;1.80;;;;;;;6.36;100.00;97890.97;5056196;28;20255;-78
2023/11/07 07:36:04;;;;;;;4.50;1.70;;;;;;;6.33;100.00;97888.53;5057743;28;20665;-78
2023/11/07 07:38:32;;;;;;;3.13;1.70;;;;;;;6.32;100.00;97892.09;5056182;28;20205;-78
2023/11/07 07:40:59;;;;;;;2.27;1.70;;;;;;;6.29;100.00;97897.50;5056204;28;20252;-77
2023/11/07 07:43:26;;;;;;;4.10;1.97;;;;;;;6.29;100.00;97891.44;5055187;28;20227;-77
2023/11/07 07:45:53;;;;;;;2.50;1.70;;;;;;;6.37;100.00;97900.56;5055289;28;20269;-78
2023/11/07 07:48:20;;;;;;;4.30;2.20;;;;;;;6.38;100.00;97902.25;5055346;28;20217;-78
2023/11/07 07:50:48;;;;;;;2.83;2.00;;;;;;;6.42;100.00;97903.75;5055079;28;20207;-78
2023/11/07 07:53:15;;;;;;;3.87;1.90;;;;;;;6.44;100.00;97906.31;5054709;28;20740;-78
2023/11/07 07:55:43;;;;;;;3.23;2.20;;;;;;;6.49;100.00;97907.75;5054650;28;20212;-78
2023/11/07 07:58:10;;;;;;;3.03;2.10;;;;;;;6.48;100.00;97906.03;5054349;28;20212;-79
2023/11/07 08:00:37;;;;;;;2.93;2.30;;;;;;;6.51;100.00;97907.66;5054295;28;20209;-78
2023/11/07 08:03:06;;;;;;;3.80;2.20;;;;;;;6.52;100.00;97910.19;5054092;28;20212;-78
2023/11/07 08:05:36;;;;;;;2.30;2.10;;;;;;;6.54;100.00;97908.31;5053915;28;20667;-78
2023/11/07 08:08:07;;;;;;;4.83;2.40;;;;;;;6.59;100.00;97911.53;5054333;28;20254;-78
2023/11/07 08:10:33;;;;;;;3.53;2.40;;;;;;;6.59;100.00;97900.19;5053103;28;20606;-78
2023/11/07 08:13:00;;;;;;;4.43;1.93;;;;;;;6.59;100.00;97906.28;5054001;28;20243;-79
2023/11/07 08:15:26;;;;;;;2.47;1.80;;;;;;;6.72;100.00;97907.28;5054185;28;20220;-79
2023/11/07 08:17:54;;;;;;;2.70;1.83;;;;;;;6.81;100.00;97901.50;5054916;28;20258;-78
2023/11/07 08:20:22;;;;;;;1.93;1.60;;;;;;;6.96;100.00;97902.41;5054861;28;20216;-78
2023/11/07 08:22:51;;;;;;;2.13;1.83;;;;;;;7.12;100.00;97905.81;5055191;28;20233;-79
2023/11/07 08:25:21;;;;;;;4.20;1.33;;;;;;;7.26;100.00;97904.06;5055021;28;20204;-79
2023/11/07 08:27:48;;;;;;;2.20;1.30;;;;;;;7.43;100.00;97917.91;5057750;28;20309;-78
2023/11/07 08:30:21;;;;;;;2.03;1.10;;;;;;;7.54;100.00;97919.88;5075682;28;20213;-78
2023/11/07 08:32:48;;;;;;;1.20;0.83;;;;;;;7.70;100.00;97920.59;5075946;28;20239;-79
2023/11/07 08:35:16;;;;;;;1.10;0.80;;;;;;;7.81;100.00;97923.44;5077384;28;20294;-78
2023/11/07 08:37:44;;;;;;;1.00;0.87;;;;;;;7.95;100.00;97921.66;5076693;28;20216;-80
2023/11/07 08:40:12;;;;;;;0.80;0.70;;;;;;;8.08;100.00;97927.00;5077031;28;20213;-80
2023/11/07 08:42:43;;;;;;;1.10;1.00;;;;;;;8.22;100.00;97922.59;5076956;28;20228;-79
2023/11/07 08:45:15;;;;;;;1.20;0.97;;;;;;;8.35;100.00;97922.66;5075270;28;20190;-79
2023/11/07 08:47:42;;;;;;;1.47;1.17;;;;;;;8.45;100.00;97921.97;5077916;28;20262;-78
2023/11/07 08:50:10;;;;;;;1.10;0.80;;;;;;;8.52;100.00;97923.25;5074986;28;20234;-80
2023/11/07 08:52:37;;;;;;;0.63;0.63;;;;;;;8.62;100.00;97923.53;5076345;28;20578;-80
2023/11/07 08:55:05;;;;;;;2.60;0.90;;;;;;;8.66;100.00;97917.97;5074359;28;20233;-80
2023/11/07 08:57:32;;;;;;;1.70;1.00;;;;;;;8.72;100.00;97925.47;5076080;28;20209;-81
2023/11/07 09:00:00;;;;;;;1.63;1.10;;;;;;;8.74;100.00;97922.72;5075484;28;20434;-79
2023/11/07 09:02:27;;;;;;;2.60;1.03;;;;;;;8.70;100.00;97929.97;5076699;28;20230;-79
2023/11/07 09:04:53;;;;;;;1.10;1.00;;;;;;;8.72;100.00;97935.16;5070182;28;20435;-79
2023/11/07 09:07:20;;;;;;;2.07;0.83;;;;;;;8.73;100.00;97937.69;5053517;28;20214;-79
2023/11/07 09:09:47;;;;;;;1.80;0.90;;;;;;;8.75;100.00;97934.97;5056637;28;20284;-80
2023/11/07 09:12:14;;;;;;;2.70;1.73;;;;;;;8.86;100.00;97937.72;5057208;28;20440;-80
2023/11/07 09:14:41;;;;;;;1.80;1.00;;;;;;;8.94;100.00;97946.81;5058980;28;20463;-78
2023/11/07 09:17:09;;;;;;;0.97;0.80;;;;;;;9.04;100.00;97941.78;5060235;28;20634;-80
2023/11/07 09:19:36;;;;;;;1.10;0.83;;;;;;;9.11;100.00;97940.47;5061540;28;20222;-79
2023/11/07 09:22:03;;;;;;;1.50;0.93;;;;;;;9.18;100.00;97945.22;5060370;28;20230;-79
2023/11/07 09:24:29;;;;;;;1.80;0.70;;;;;;;9.29;100.00;97947.13;5061361;28;20593;-80
2023/11/07 09:26:56;;;;;;;0.97;0.70;;;;;;;9.35;100.00;97946.72;5059899;28;20563;-79
2023/11/07 09:29:23;;;;;;;0.90;0.80;;;;;;;9.43;100.00;97949.69;5058825;28;20216;-79
2023/11/07 09:31:52;;;;;;;0.97;0.90;;;;;;;9.51;100.00;97950.00;5058013;28;20623;-77
2023/11/07 09:34:20;;;;;;;0.87;0.70;;;;;;;9.58;100.00;97959.19;5056667;28;20267;-79
2023/11/07 09:36:47;;;;;;;2.20;0.90;;;;;;;9.63;100.00;97951.81;5056611;28;20218;-79
2023/11/07 09:39:14;;;;;;;0.70;0.70;;;;;;;9.69;100.00;97959.31;5055129;28;20230;-79
2023/11/07 09:41:42;;;;;;;2.80;0.80;;;;;;;9.70;100.00;97958.38;5054328;28;20230;-79
2023/11/07 09:44:11;;;;;;;0.60;0.60;;;;;;;9.68;100.00;97955.81;5052372;28;20241;-79
2023/11/07 09:46:39;;;;;;;0.67;0.67;;;;;;;9.70;100.00;97953.09;5054264;28;20222;-79
2023/11/07 09:49:07;;;;;;;0.70;0.60;;;;;;;9.69;100.00;97952.25;5055744;28;20278;-79
2023/11/07 09:51:37;;;;;;;1.43;0.90;;;;;;;9.66;100.00;97952.47;5054970;28;20230;-79
2023/11/07 09:54:05;;;;;;;0.73;0.60;;;;;;;9.72;100.00;97945.94;5054760;28;20224;-79
2023/11/07 09:56:39;;;;;;;0.90;0.80;;;;;;;9.72;100.00;97951.22;5055099;28;20531;-81
2023/11/07 09:59:15;;;;;;;0.80;0.60;;;;;;;9.73;100.00;97947.63;5054401;28;20215;-80
2023/11/07 10:01:42;;;;;;;0.90;0.70;;;;;;;9.79;100.00;97947.19;5052976;28;20230;-81
2023/11/07 10:04:09;;;;;;;0.60;0.60;;;;;;;9.83;100.00;97938.94;5053954;28;20300;-80
2023/11/07 10:06:37;;;;;;;1.60;0.70;;;;;;;9.90;100.00;97934.94;5052822;28;20211;-79
2023/11/07 10:09:04;;;;;;;0.87;0.50;;;;;;;9.94;100.00;97925.00;5052513;28;20213;-79
2023/11/07 10:11:44;;;;;;;0.80;0.70;;;;;;;10.03;100.00;97934.94;5052779;28;20246;-79
2023/11/07 10:14:11;;;;;;;0.50;0.50;;;;;;;10.13;100.00;97925.44;5052580;28;20233;-79
2023/11/07 10:16:39;;;;;;;0.93;0.60;;;;;;;10.24;100.00;97933.44;5052209;28;20283;-79
2023/11/07 10:19:07;;;;;;;0.50;0.50;;;;;;;10.35;100.00;97931.72;5052463;28;20204;-79
2023/11/07 10:21:36;;;;;;;3.30;0.80;;;;;;;10.46;100.00;97931.78;5052274;28;20312;-79
2023/11/07 10:24:06;;;;;;;1.40;0.60;;;;;;;10.56;100.00;97922.25;5052396;28;20209;-79
2023/11/07 10:26:32;;;;;;;2.93;0.57;;;;;;;10.64;100.00;97919.91;5052629;28;20213;-79
2023/11/07 10:29:13;;;;;;;0.60;0.50;;;;;;;10.76;100.00;97918.19;5052419;28;20222;-79
2023/11/07 10:31:41;;;;;;;0.70;0.57;;;;;;;10.83;100.00;97916.78;5052205;28;20230;-79
2023/11/07 10:34:15;;;;;;;1.13;0.50;;;;;;;10.93;100.00;97918.63;5052358;28;20295;-79
2023/11/07 10:36:43;;;;;;;0.50;0.50;;;;;;;11.00;100.00;97913.72;5052541;28;20206;-80
2023/11/07 10:39:16;;;;;;;0.83;0.57;;;;;;;11.01;100.00;97903.00;5052198;28;20208;-80
2023/11/07 10:41:44;;;;;;;1.07;0.50;;;;;;;11.03;100.00;97892.31;5053582;28;20229;-80
2023/11/07 10:44:22;;;;;;;2.77;0.50;;;;;;;11.08;100.00;97900.78;5054910;28;20205;-80
2023/11/07 10:46:50;;;;;;;1.07;0.50;;;;;;;10.93;98.04;97886.03;5056103;28;20212;-80
2023/11/07 10:49:18;;;;;;;0.77;0.60;;;;;;;10.97;99.75;97898.94;5055615;28;20240;-80
2023/11/07 10:51:45;;;;;;;0.50;0.50;;;;;;;10.89;98.70;97889.88;5056544;28;20242;-80
2023/11/07 10:54:12;;;;;;;1.13;0.50;;;;;;;10.81;100.00;97889.59;5056001;28;20234;-80
2023/11/07 10:56:44;;;;;;;0.70;0.50;;;;;;;10.72;95.71;97872.63;5056881;28;20209;-80
2023/11/07 10:59:15;;;;;;;0.40;0.40;;;;;;;10.77;95.60;97886.31;5056971;28;20196;-80
2023/11/07 11:01:45;;;;;;;0.40;0.30;;;;;;;10.65;96.93;97891.69;5056638;28;20255;-80
2023/11/07 11:04:13;;;;;;;0.57;0.40;;;;;;;10.56;95.53;97881.75;5056555;28;20205;-80
2023/11/07 11:06:45;;;;;;;0.50;0.40;;;;;;;10.57;95.26;97883.44;5056081;28;20216;-80
2023/11/07 11:09:12;;;;;;;0.50;0.50;;;;;;;10.45;95.57;97887.00;5056007;28;20209;-80
2023/11/07 11:11:42;;;;;;;0.77;0.47;;;;;;;10.51;98.68;97915.63;5056175;28;20239;-80
2023/11/07 11:14:09;;;;;;;0.33;0.30;;;;;;;10.35;100.00;97925.59;5056140;28;20277;-80
2023/11/07 11:16:37;;;;;;;0.67;0.40;;;;;;;10.36;100.00;97922.00;5056361;28;20551;-80
2023/11/07 11:19:14;;;;;;;0.50;0.50;;;;;;;10.27;100.00;97928.78;5059556;28;20205;-84
2023/11/07 11:21:48;;;;;;;0.47;0.40;;;;;;;10.16;100.00;97933.16;5057585;28;20229;-82
2023/11/07 11:24:23;;;;;;;1.03;0.27;;;;;;;10.02;100.00;97931.44;5069624;28;20198;-80
2023/11/07 11:26:58;;;;;;;0.40;0.40;;;;;;;10.00;100.00;97935.13;5065795;28;20206;-81
2023/11/07 11:29:25;;;;;;;0.60;0.40;;;;;;;9.88;100.00;97936.84;5060829;28;20238;-78
2023/11/07 11:31:53;;;;;;;0.33;0.33;;;;;;;9.79;100.00;97934.00;5062406;28;20299;-79
2023/11/07 11:34:25;;;;;;;0.47;0.40;;;;;;;9.81;100.00;97947.94;5060647;28;20297;-83